Connexion

Semi

SEMI DE BOULOGNE du 01/07/18 (Réelle 21,1)
Rang Dossard Nom Prénom Temps Cat Rang Cat Ecart Ecart Cat Club Vitesse Km/h Temps au Km
1 3373 DODE SYLVAIN 01:12:20 SEM 1 00:00:00 00:00:00 17,502 03:26
2 3500 MONTADOR NICOLAS 01:15:31 SEM 2 00:03:11 00:03:11 ATHLETISME CLUB OUTREAU 16,765 03:35
3 3188 CLEMENT DAMIEN 01:17:00 SEM 3 00:04:40 00:04:40 S/L US AC AUDOMAROIS 16,442 03:39
4 3150 PICHONNIER GUILLAUME 01:17:30 SEM 4 00:05:10 00:05:10 BOULOGNE ATHLETIQUE CLUB 16,335 03:40
5 3427 DELMAS ROMAIN 01:19:28 V1M 1 00:07:08 00:00:00 15,931 03:46
6 3363 PANNEQUIN LUDOVIC 01:21:18 V2M 1 00:08:58 00:00:00 NON LICENCIE 15,572 03:51
7 3405 QUANDALLE THOMAS 01:21:48 SEM 5 00:09:28 00:09:28 15,477 03:53
8 3215 VANDEWALLE THOMAS 01:22:47 SEM 6 00:10:27 00:10:27 NON LICENCIE 15,293 03:55
9 3394 MATRINGHEN TONY 01:23:02 SEM 7 00:10:42 00:10:42 TRIATHLON CLUB BOULONNAIS 15,247 03:56
10 3117 BISCHOFF FREDDY 01:27:12 SEM 8 00:14:52 00:14:52 14,518 04:08
11 3281 VASSEUR YOHANN 01:27:46 SEM 9 00:15:26 00:15:26 LYS CALAIS TRIATHLON 14,425 04:10
12 3414 GRESSIER OLIVIER 01:28:06 V1M 2 00:15:46 00:08:38 DESVRES 14,370 04:11
13 3460 DELCROIX YANN 01:28:15 V1M 3 00:15:55 00:08:47 14,346 04:11
14 3144 LIERE THOMAS 01:28:29 SEM 10 00:16:09 00:16:09 US LEFFRINCKOUCKE JOGGING 14,308 04:12
15 3470 COPPIN NICOLAS 01:28:56 V1M 4 00:16:36 00:09:28 ATHLETISME CLUB OUTREAU 14,235 04:13
16 3283 FEUTRY GREGORY 01:29:24 SEM 11 00:17:04 00:17:04 14,161 04:14
17 3258 TISSERAND THIBAUT 01:29:32 SEM 12 00:17:12 00:17:12 - 14,140 04:15
18 3003 SOUDAIN NICOLAS 01:29:32 SEM 13 00:17:12 00:17:12 - 14,140 04:15
19 3253 DUHAMEL PHILIPPE 01:29:43 V2M 2 00:17:23 00:08:25 - 14,111 04:15
20 3350 DELMOTTE GERARD-ALEXANDRE 01:29:55 V1M 5 00:17:35 00:10:27 JOGGING CLUB LICQUOIS 14,080 04:16
21 3305 BALY SYLVAIN 01:30:25 SEM 14 00:18:05 00:18:05 - 14,002 04:17
22 3751 BOBEE NATHALIE 01:30:27 V1F 1 00:18:07 00:00:00 ATHLETISME CLUB OUTREAU 13,997 04:17
23 3345 LHEUREUX DANIEL 01:30:34 V1M 6 00:18:14 00:11:06 SPORT EVASION DES 2 CAPS 13,979 04:18
24 3388 LELAN CeDRIC 01:30:38 V1M 7 00:18:18 00:11:10 - 13,968 04:18
25 3245 MARCQ MATHIEUX 01:31:51 SEM 15 00:19:31 00:19:31 13,783 04:21
26 3322 TELLIER TEDDY 01:32:03 V1M 8 00:19:43 00:12:35 VAL DE SOMME 13,753 04:22
27 3338 FASQUEL DOMINIQUE 01:32:24 V1M 9 00:20:04 00:12:56 OPALE TRAIL NATURE 13,701 04:23
28 3214 BRISVILLE ANTOINE 01:32:40 SEM 16 00:20:20 00:20:20 13,662 04:24
29 3392 BRACH RICHARD 01:33:10 SEM 17 00:20:50 00:20:50 13,589 04:25
30 3165 KURZ WLADISLAW 01:33:42 SEM 18 00:21:22 00:21:22 13,511 04:26
31 3120 DE MARTELAERE VALERY 01:34:10 V1M 10 00:21:50 00:14:42 13,444 04:28
32 3410 LAMIRAND ALINE 01:34:47 SEF 1 00:22:27 00:00:00 A.S. MARCK 13,357 04:30
33 3249 MANIER WILLIAM 01:34:49 SEM 19 00:22:29 00:22:29 - 13,352 04:30
34 3091 DELCROIX VINCENT 01:35:20 V1M 11 00:23:00 00:15:52 - 13,280 04:31
35 3359 MIRMONT ReMI 01:35:48 SEM 20 00:23:28 00:23:28 DESVRES 13,215 04:32
36 3041 SENE GReGOIRE 01:35:56 SEM 21 00:23:36 00:23:36 13,197 04:33
37 3374 DUMORTIER DAVID 01:35:57 SEM 22 00:23:37 00:23:37 13,194 04:33
38 3246 LEBLOND GUILLAUME 01:36:06 SEM 23 00:23:46 00:23:46 - 13,174 04:33
39 3383 DELCOURT THOMAS 01:36:11 SEM 24 00:23:51 00:23:51 WIMEREUX RUNNING CLUB 13,162 04:34
40 3184 JACOB ROMAIN 01:36:26 SEM 25 00:24:06 00:24:06 13,128 04:34
41 3469 BOURGAIN SeBASTIEN 01:36:26 V1M 12 00:24:06 00:16:58 ATHLETISME CLUB OUTREAU 13,128 04:34
42 3429 BATTESTI DAVID 01:36:35 SEM 26 00:24:15 00:24:15 TEAM TRAIL 62 13,108 04:35
43 3431 CHAUCHOY OLIVIER 01:36:40 V1M 13 00:24:20 00:17:12 COLEMBERT 13,097 04:35
44 3496 MINARD MATHIEU 01:37:15 V1M 14 00:24:55 00:17:47 ATHLETISME CLUB OUTREAU 13,018 04:37
45 3468 BOULY JeRoME 01:37:15 V1M 15 00:24:55 00:17:47 ATHLETISME CLUB OUTREAU 13,018 04:37
46 3448 GUEUDRE FABRICE 01:37:37 SEM 27 00:25:17 00:25:17 LE DRAPEAU 12,969 04:38
47 3199 PETIT FLORIAN 01:37:47 SEM 28 00:25:27 00:25:27 12,947 04:38
48 3411 FLAUDE CHRISTOPHER 01:37:52 SEM 29 00:25:32 00:25:32 - 12,936 04:38
49 3416 SCHUPPE CLOTAIRE 01:37:59 V2M 3 00:25:39 00:16:41 AS MARCK 12,921 04:39
50 3204 COUELLANT FRANCOIS 01:38:01 SEM 30 00:25:41 00:25:41 12,916 04:39
51 3466 BADON EMMANUEL 01:38:01 V1M 16 00:25:41 00:18:33 ATHLETISME CLUB OUTREAU 12,916 04:39
52 3356 GRESSIER OLIVIER 01:38:06 V2M 4 00:25:46 00:16:48 FREVENT OLYMPIC CLUB 12,905 04:39
53 3456 HONIN MARIE 01:38:07 SEF 2 00:25:47 00:03:20 12,903 04:39
54 3492 ROBERVAL GAUTIER 01:38:08 ESM 1 00:25:48 00:00:00 - 12,901 04:39
55 3302 DECUPPER ELODIE 01:38:22 SEF 3 00:26:02 00:03:35 TEAM O2PALE 12,870 04:40
56 3487 MILLE XAVIER 01:38:36 SEM 31 00:26:16 00:26:16 BOURTHES RUNNING 12,840 04:40
57 3267 COCQUET ERIC 01:38:43 V1M 17 00:26:23 00:19:15 12,825 04:41
58 3478 LASSALLE PASCAL 01:38:56 V1M 18 00:26:36 00:19:28 ATHLETISME CLUB OUTREAU 12,796 04:41
59 3282 CUGNY JEROME 01:39:06 SEM 32 00:26:46 00:26:46 12,775 04:42
60 3454 MAGNIER TONY 01:39:09 SEM 33 00:26:49 00:26:49 - 12,769 04:42
61 3328 DELATTAIGNANT ARNAUD 01:39:37 V1M 19 00:27:17 00:20:09 - 12,709 04:43
62 3265 LECLERCQ CHRISTOPHE 01:39:37 SEM 34 00:27:17 00:27:17 - 12,709 04:43
63 3103 TERRIEN ARNAUD 01:39:44 V1M 20 00:27:24 00:20:16 12,694 04:44
64 3227 DESFONTAINES PIERRE 01:39:45 SEM 35 00:27:25 00:27:25 CA COUDEKERQUE-BRANCHE 12,692 04:44
65 3484 SAUVAGE PATRICK 01:39:46 V2M 5 00:27:26 00:18:28 ATHLETISME CLUB OUTREAU 12,690 04:44
66 3234 HADOUX ALAIN 01:39:51 SEM 36 00:27:31 00:27:31 - 12,679 04:44
67 3317 ERRARD CHRISTOPHE 01:39:53 V2M 6 00:27:33 00:18:35 VAL DE SOMME 12,675 04:44
68 3434 BAYART EMMANUEL 01:39:58 V1M 21 00:27:38 00:20:30 12,664 04:44
69 3477 FLOURET STePHANIE 01:40:04 V1F 2 00:27:44 00:09:37 ATHLETISME CLUB OUTREAU 12,652 04:45
70 3018 LEFEBVRE GREGORY 01:40:09 SEM 37 00:27:49 00:27:49 AMICALE HOSPITALIERS BOULOGNE 12,641 04:45
71 3369 DUPONCHEL Guilain 01:40:13 V1M 22 00:27:53 00:20:45 12,633 04:45
72 3125 MASSON STEPHANE 01:40:17 V1M 23 00:27:57 00:20:49 - 12,624 04:45
73 3025 MAC-LEAN ARNAUD 01:40:20 V1M 24 00:28:00 00:20:52 - 12,618 04:45
74 3240 THOMAS YVAN 01:40:23 SEM 38 00:28:03 00:28:03 COURIR A GRAVELINES 12,612 04:45
75 3318 DAMIENS DOMINIQUE 01:40:26 V3M 1 00:28:06 00:00:00 VAL DE SOMME 12,605 04:46
76 3489 MALLIOPOULOS XAVIER 01:40:38 V2M 7 00:28:18 00:19:20 BERCK A C O 12,580 04:46
77 3482 MORICE ARNAUD 01:40:51 V1M 25 00:28:31 00:21:23 ATHLETISME CLUB OUTREAU 12,553 04:47
78 3376 FLORANGE CAROLE 01:40:52 V1F 3 00:28:32 00:10:25 12,551 04:47
79 3329 LANDRECIES LOIC 01:41:13 SEM 39 00:28:53 00:28:53 - 12,508 04:48
80 3169 BEGUE YANNICK 01:41:23 V1M 26 00:29:03 00:21:55 - 12,487 04:48
81 3176 SERRA JULIEN 01:41:41 SEM 40 00:29:21 00:29:21 12,450 04:49
82 3387 SEILLIER WILLY 01:42:01 V1M 27 00:29:41 00:22:33 - 12,410 04:50
83 3463 FARNWORTH GRAEME 01:42:11 V2M 8 00:29:51 00:20:53 ATHLETIQUE CLUB CAPELLOIS 12,389 04:51
84 3260 CALON JEAN CHRISTOPHE 01:42:12 V2M 9 00:29:52 00:20:54 - 12,387 04:51
85 3332 CAPRON ARTHUR 01:42:14 ESM 2 00:29:54 00:04:06 12,383 04:51
86 3316 ETIENNE JeRoME 01:42:38 SEM 41 00:30:18 00:30:18 TEAM TRAIL OPALE 12,335 04:52
87 3358 LABOURDETTE SeBASTIEN 01:42:46 V1M 28 00:30:26 00:23:18 - 12,319 04:52
88 3254 CALOIN WILLIAM 01:42:55 V1M 29 00:30:35 00:23:27 - 12,301 04:53
89 3172 REGNAUT ANTOINE 01:43:08 SEM 42 00:30:48 00:30:48 - 12,275 04:53
90 3237 BOURGAIN MICHAEL 01:43:15 V1M 30 00:30:55 00:23:47 12,262 04:54
91 3009 MOUCHELET NATHALIE 01:43:28 V1F 4 00:31:08 00:13:01 12,236 04:54
92 3104 JOIGNAUX JULIEN 01:43:38 SEM 43 00:31:18 00:31:18 - 12,216 04:55
93 3194 GERSTENMEYER CARMEN 01:44:15 SEF 4 00:31:55 00:09:28 12,144 04:56
94 3390 DECLERCQ BASTIEN 01:44:28 SEM 44 00:32:08 00:32:08 12,119 04:57
95 3474 DESACHY MARC 01:44:30 V1M 31 00:32:10 00:25:02 ATHLETISME CLUB OUTREAU 12,115 04:57
96 3483 PAQUES CHRISTOPHE 01:44:30 V1M 32 00:32:10 00:25:02 ATHLETISME CLUB OUTREAU 12,115 04:57
97 3217 LAMOTE LAMBERT 01:44:47 ESM 3 00:32:27 00:06:39 12,082 04:58
98 3349 DUQUENOY DAVID 01:44:57 V1M 33 00:32:37 00:25:29 JOGGING CLUB LICQUOIS 12,063 04:58
99 3364 TZATZANAS STYLIANOS 01:45:07 V3M 2 00:32:47 00:04:41 12,044 04:59
100 3198 LAMOUR DAVID 01:45:10 SEM 45 00:32:50 00:32:50 - 12,038 04:59
101 3424 GRASSELLI RICARDO 01:45:15 V2M 10 00:32:55 00:23:57 12,029 04:59
102 3264 ARNAUD DUQUESNOY 01:45:24 V1M 34 00:33:04 00:25:56 12,011 05:00
103 3285 GIVAUDAN PATRICK 01:45:25 V1M 35 00:33:05 00:25:57 12,009 05:00
104 3039 MONCHAUX ALEXIS 01:45:31 ESM 4 00:33:11 00:07:23 11,998 05:00
105 3019 MONTANARI ERIC 01:45:34 V2M 11 00:33:14 00:24:16 - 11,992 05:00
106 3309 BALY PATRICK 01:45:35 V3M 3 00:33:15 00:05:09 TEAM BALY 11,991 05:00
107 3476 SENECHAL SEBASTIEN 01:45:44 V1M 36 00:33:24 00:26:16 AC OUTREAU 11,974 05:01
108 3090 LEPRETRE CHARLES 01:45:53 SEM 46 00:33:33 00:33:33 11,957 05:01
109 3220 ROCHE BERNARD 01:46:15 V2M 12 00:33:55 00:24:57 - 11,915 05:02
110 3472 DEBUSSCHERE DAVID 01:46:37 V1M 37 00:34:17 00:27:09 AC OUTREAU 11,874 05:03
111 3164 MARTEL JEAN-RENE 01:46:55 V2M 13 00:34:35 00:25:37 11,841 05:04
112 3190 DUHAUTOIS SYLVAIN 01:46:58 V1M 38 00:34:38 00:27:30 11,835 05:04
113 3141 CASAIL CHRISTOPHE 01:47:21 V2M 14 00:35:01 00:26:03 11,793 05:05
114 3284 DEBRUYNE STEPHANE 01:47:30 V1M 39 00:35:10 00:28:02 11,777 05:06
115 3337 LAUWERS LUDOVIC 01:47:37 V1M 40 00:35:17 00:28:09 11,764 05:06
116 3210 MANIER OLIVIER 01:47:38 SEM 47 00:35:18 00:35:18 . 11,762 05:06
117 3223 DUBUISSON JEROME 01:47:40 SEM 48 00:35:20 00:35:20 11,759 05:06
118 3181 BRULIN ALEX 01:47:43 V1M 41 00:35:23 00:28:15 11,753 05:06
119 3310 PLATIAU MARIE 01:47:52 SEF 5 00:35:32 00:13:05 - 11,737 05:07
120 3262 PINTO KEVIN 01:48:00 SEM 49 00:35:40 00:35:40 - 11,722 05:07
121 3203 MARCOTTE THOMAS 01:48:01 SEM 50 00:35:41 00:35:41 11,720 05:07
122 3030 ROUVIERE JULIEN 01:48:02 SEM 51 00:35:42 00:35:42 11,719 05:07
123 3195 DESCAMPS MATTHIEU 01:48:17 SEM 52 00:35:57 00:35:57 11,692 05:08
124 3312 DESAINS STePHANE 01:48:24 V1M 42 00:36:04 00:28:56 - 11,679 05:08
125 3399 BEAUCAMP JOSE 01:48:36 V2M 15 00:36:16 00:27:18 SO CALAIS 11,657 05:09
126 3145 DUBARRY DAVID 01:48:50 V1M 43 00:36:30 00:29:22 - 11,632 05:09
127 3498 HENAUT CEDRIC 01:48:54 V1M 44 00:36:34 00:29:26 NON LICENCIE 11,625 05:10
128 3276 MAHIEU QUENTIN 01:48:59 SEM 53 00:36:39 00:36:39 11,616 05:10
129 3154 DUHAMEL GREGOIRE 01:49:02 SEM 54 00:36:42 00:36:42 BOULOGNE ATHLETIQUE CLUB 11,611 05:10
130 3170 MACQUINGHEN CELINE 01:49:02 V1F 5 00:36:42 00:18:35 11,611 05:10
131 3272 BODART LUDOVIC 01:49:14 V1M 45 00:36:54 00:29:46 - 11,590 05:11
132 3407 CRON ALFRED 01:49:23 SEM 55 00:37:03 00:37:03 - 11,574 05:11
133 3105 BENOIT FLORIAN 01:49:24 SEM 56 00:37:04 00:37:04 11,572 05:11
134 3453 CORDIER ARNAUD 01:49:27 SEM 57 00:37:07 00:37:07 COURIR DANS LE LUMBROIS 11,567 05:11
135 3094 COUSSIN THIERRY 01:49:29 SEM 58 00:37:09 00:37:09 11,563 05:11
136 3186 FOURE TIMOTHEE 01:49:31 SEM 59 00:37:11 00:37:11 11,560 05:11
137 3361 RODRÍGUEZ MARTIN 01:49:40 V2M 16 00:37:20 00:28:22 11,544 05:12
138 3432 DETHOOR DOMINIQUE 01:49:43 V2M 17 00:37:23 00:28:25 COLEMBERT 11,539 05:12
139 3413 DOYER AYMERIC 01:49:47 V1M 46 00:37:27 00:30:19 ARC INTERNATIONAL 11,532 05:12
140 3219 SIMON ERIC 01:49:54 V2M 18 00:37:34 00:28:36 11,520 05:13
141 3218 SIMON ALICE 01:49:56 ESF 1 00:37:36 00:00:00 11,516 05:13
142 3436 BRANACH ANNA 01:50:08 SEF 6 00:37:48 00:15:21 11,495 05:13
143 3441 PASTULA IRENA 01:50:08 SEF 7 00:37:48 00:15:21 11,495 05:13
144 3377 DEBLOCK SEBASTIEN 01:50:09 V1M 47 00:37:49 00:30:41 11,493 05:13
145 3229 COTI NOEL 01:50:15 V2M 19 00:37:55 00:28:57 11,483 05:14
146 3495 MAESEELE LEA 01:50:20 ESF 2 00:38:00 00:00:24 HLWA 11,474 05:14
147 3068 MOREL SOPHIE 01:50:25 V1F 6 00:38:05 00:19:58 11,466 05:14
148 3056 FOURNIER VIRGINIE 01:50:32 SEF 8 00:38:12 00:15:45 11,454 05:14
149 3348 QUEHEN FRANZ 01:50:53 V1M 48 00:38:33 00:31:25 - 11,417 05:15
150 3238 TRUPIN GReGORY 01:50:57 SEM 60 00:38:37 00:38:37 - 11,411 05:15
151 3445 CHOUROT LUCIEN 01:50:57 V3M 4 00:38:37 00:10:31 LE DRAPEAU 11,411 05:15
152 5831 LORSON ARSENE 01:51:03 ESM 5 00:38:43 00:12:55 - 11,400 05:16
153 3230 DUFOUR CHRISTINE 01:51:08 SEF 9 00:38:48 00:16:21 11,392 05:16
154 3481 LEMOINE BERNARD 01:51:20 V2M 20 00:39:00 00:30:02 ATHLETISME CLUB OUTREAU 11,371 05:17
155 3166 FICQUET ROMAIN 01:51:27 SEM 61 00:39:07 00:39:07 11,359 05:17
156 3028 DALLAS JOANNE 01:51:51 V1F 7 00:39:31 00:21:24 - 11,319 05:18
157 3032 BOIDIN DENIS 01:51:55 V1M 49 00:39:35 00:32:27 TEAM TRAIL OPALE 11,312 05:18
158 3459 BAILLET LAURA 01:51:58 SEF 10 00:39:38 00:17:11 - 11,307 05:18
159 3425 SEGRET PIERRIC 01:52:07 V1M 50 00:39:47 00:32:39 11,292 05:19
160 3050 FONTAINE THOMAS 01:52:08 JUM 1 00:39:48 00:00:00 11,290 05:19
161 3450 MILLE FRANCIS 01:52:11 V3M 5 00:39:51 00:11:45 - 11,285 05:19
162 3455 CARON MATHIEU 01:52:25 SEM 62 00:40:05 00:40:05 - 11,262 05:20
163 3137 DUMONT PIERRICK 01:52:36 SEM 63 00:40:16 00:40:16 - 11,243 05:20
164 3351 BODEL NICOLAS 01:52:37 V1M 51 00:40:17 00:33:09 - 11,242 05:20
165 3357 VIOLET CHRISTEL 01:52:39 V1F 8 00:40:19 00:22:12 11,238 05:20
166 3499 TASSART HELENE 01:52:40 SEF 11 00:40:20 00:17:53 A.S. MARCK 11,237 05:20
167 3179 LELEU ANGELA 01:52:44 V1F 9 00:40:24 00:22:17 - 11,230 05:21
168 3421 DURIEZ MANU 01:52:46 V1M 52 00:40:26 00:33:18 TEAM TRAIL OPALE 11,227 05:21
169 3452 BOUCHARD FRANCOIS 01:52:53 V2M 21 00:40:33 00:31:35 11,215 05:21
170 3381 BECQUET KARINE 01:53:03 V1F 10 00:40:43 00:22:36 PATRIOTES CROSS DE GUINES 11,199 05:21
171 3292 LABBE TONY 01:53:13 V1M 53 00:40:53 00:33:45 AMICALE HOSPITALIERS BOULOGNE 11,182 05:22
172 3118 ROEGIS SYLVIE 01:53:36 V2F 1 00:41:16 00:00:00 11,144 05:23
173 3113 FAIT JEAN-PHI 01:53:48 V1M 54 00:41:28 00:34:20 TOUQUET TRAIL NATURE 11,125 05:24
174 3250 BITOT FREDERIC 01:54:06 V1M 55 00:41:46 00:34:38 11,096 05:24
175 3341 GOLLIOT AUReLIEN 01:54:23 ESM 6 00:42:03 00:16:15 AC CAPELLOIS 11,068 05:25
176 3422 GOBERT LUDOVIC 01:54:24 V1M 56 00:42:04 00:34:56 CS NESLES 11,066 05:25
177 3315 MAILLARD ERIC 01:54:24 V1M 57 00:42:04 00:34:56 11,066 05:25
178 3096 LEBLOND CHRISTOPHE 01:55:04 SEM 64 00:42:44 00:42:44 11,002 05:27
179 3108 GARENAUX MARTIN 01:55:06 SEM 65 00:42:46 00:42:46 NON LICENCIE 10,999 05:27
180 3343 PAQUE ANTHONY 01:55:26 SEM 66 00:43:06 00:43:06 OPALE AIDE ORGANISATION 10,967 05:28
181 3084 CHARPENTIER JEROME 01:55:27 V1M 58 00:43:07 00:35:59 10,966 05:28
182 3140 LORINE DUCROCQ 01:55:28 SEF 12 00:43:08 00:20:41 10,964 05:28
183 3293 BRIDOUX CHRISTINE 01:55:31 V2F 2 00:43:11 00:01:55 SPORT PLUS 10,959 05:28
184 3497 HORNAIN FABRICE 01:55:32 V1M 59 00:43:12 00:36:04 BOULOGNE ATHLETIQUE CLUB 10,958 05:29
185 3124 CARON ALAIN 01:55:32 V2M 22 00:43:12 00:34:14 10,958 05:29
186 3133 MANIE JORDAN 01:55:35 ESM 7 00:43:15 00:17:27 - 10,953 05:29
187 3379 LEMAITRE FABIEN 01:55:37 SEM 67 00:43:17 00:43:17 10,950 05:29
188 3442 HEYVAERT GABRIELLE 01:55:40 SEF 13 00:43:20 00:20:53 10,945 05:29
189 3023 BRICHE JEAN CHRISTOPHE 01:56:01 V1M 60 00:43:41 00:36:33 - 10,912 05:30
190 3111 JOONNEKINDT MARIE 01:56:05 V2F 3 00:43:45 00:02:29 10,906 05:30
191 3471 DAVID DANY 01:56:12 V1M 61 00:43:52 00:36:44 ATHLETISME CLUB OUTREAU 10,895 05:30
192 3346 HOCQ BRUNO 01:56:19 V2M 23 00:43:59 00:35:01 ATHLETISME CLUB OUTREAU 10,884 05:31
193 3362 LELOIR ERIC 01:56:31 V1M 62 00:44:11 00:37:03 - 10,865 05:31
194 3404 JUDAS FABIEN 01:56:43 SEM 68 00:44:23 00:44:23 NL 10,847 05:32
195 3097 HUQUET LAURENT 01:56:54 V1M 63 00:44:34 00:37:26 10,830 05:32
196 3095 DEREMETZ JEAN CHRISTOPHE 01:56:54 V1M 64 00:44:34 00:37:26 10,830 05:32
197 3178 LOUASSE ALEXANDRE 01:57:04 SEM 69 00:44:44 00:44:44 - 10,814 05:33
198 3368 MORICHON JEAN PIERRE 01:57:06 V1M 65 00:44:46 00:37:38 10,811 05:33
199 3299 GRESSIER PHILIPPE 01:57:21 V2M 24 00:45:01 00:36:03 SAINT MARTIN ATHLETISME 10,788 05:34
200 3355 LANNOY HERVE 01:57:27 V3M 6 00:45:07 00:17:01 10,779 05:34
201 3122 TELLIER LUDOVIC 01:57:30 V1M 66 00:45:10 00:38:02 - 10,774 05:34
202 3393 MASCOT CHRISTOPHE 01:57:35 V1M 67 00:45:15 00:38:07 - 10,767 05:34
203 3256 TISSERAND XAVIER 01:57:47 V2M 25 00:45:27 00:36:29 - 10,749 05:35
204 3046 DUFAU-SANSOT YOURI 01:58:21 SEM 70 00:46:01 00:46:01 10,697 05:37
205 3494 GUILBERT MAXIME 01:58:21 SEM 71 00:46:01 00:46:01 10,697 05:37
206 3007 DUVIVIER STEPHANIE 01:58:29 V1F 11 00:46:09 00:28:02 10,685 05:37
207 3333 DELRUE OLIVIER 01:58:33 SEM 72 00:46:13 00:46:13 - 10,679 05:37
208 3160 BOGDANOVA EVA 01:58:47 SEF 14 00:46:27 00:24:00 10,658 05:38
209 3228 COTI SANDRINE 01:58:47 V1F 12 00:46:27 00:28:20 10,658 05:38
210 3339 DUMAINE BENJAMIN 01:58:52 SEM 73 00:46:32 00:46:32 OPALE AIDE ORGANISATION 10,651 05:38
211 3131 SABRE THOMAS 01:59:06 SEM 74 00:46:46 00:46:46 10,630 05:39
212 3271 HEUX YOANN 01:59:08 SEM 75 00:46:48 00:46:48 10,627 05:39
213 3157 LELEU GABRIEL 01:59:16 V1M 68 00:46:56 00:39:48 BOULOGNE ATHLETIQUE CLUB 10,615 05:39
214 3447 FORTIN LUDOVIC 01:59:17 SEM 76 00:46:57 00:46:57 LE DRAPEAU 10,613 05:39
215 3277 GREMAIN MATHIEU 01:59:19 SEM 77 00:46:59 00:46:59 10,610 05:39
216 3473 DEREEP YANNICK 01:59:33 V1F 13 00:47:13 00:29:06 ATHLETISME CLUB OUTREAU 10,590 05:40
217 3222 DUFLOS OLIVIER 01:59:33 SEM 78 00:47:13 00:47:13 10,590 05:40
218 3047 DUPUY--LE POUPON MARINE 01:59:37 SEF 15 00:47:17 00:24:50 10,584 05:40
219 3493 GODIN LUDOVIC 01:59:37 V1M 69 00:47:17 00:40:09 . 10,584 05:40
220 3200 BAUDELET TONY 02:00:06 SEM 79 00:47:46 00:47:46 - 10,541 05:42
221 3235 LOPEZ STEPHANIE 02:00:07 V1F 14 00:47:47 00:29:40 BERCK A C O 10,540 05:42
222 3269 CASAIL NATHACHA 02:00:21 V2F 4 00:48:01 00:06:45 10,519 05:42
223 3123 SABRE MAXIME 02:00:36 SEM 80 00:48:16 00:48:16 - 10,498 05:43
224 3320 MOUTON OLIVIER 02:00:38 V1M 70 00:48:18 00:41:10 MAIRIE DE BOULOGNE SUR MER 10,495 05:43
225 3083 GRENU PATRICK 02:00:41 V1M 71 00:48:21 00:41:13 NL 10,490 05:43
226 3161 JUSTIN LUCIEN 02:00:44 V4M 1 00:48:24 00:00:00 - 10,486 05:43
227 3319 POUSSET PATRICE 02:00:47 V3M 7 00:48:27 00:20:21 VAL DE SOMME 10,482 05:43
228 3370 LEROY MICHAEL 02:00:48 V1M 72 00:48:28 00:41:20 10,480 05:44
229 3378 FREHAUT SIMON 02:00:49 SEM 81 00:48:29 00:48:29 10,479 05:44
230 3213 FRIBAULT ANGELIQUE 02:00:50 SEF 16 00:48:30 00:26:03 10,477 05:44
231 3187 BERTRAND ARBLAY 02:00:51 V1M 73 00:48:31 00:41:23 10,476 05:44
232 3300 DANGER AURELIA 02:00:58 SEF 17 00:48:38 00:26:11 SAINT MARTIN ATHLETISME 10,466 05:44
233 3437 SAVOYE VINCENT 02:01:00 SEM 82 00:48:40 00:48:40 NCN 10,463 05:44
234 3491 BRICHE ERIC 02:01:07 V3M 8 00:48:47 00:20:41 SAINT MARTIN ATHLETISME 10,453 05:44
235 3088 LEFEBVRE ARNAUD 02:01:10 V1M 74 00:48:50 00:41:42 10,448 05:45
236 3016 GERMAIN GReGORY 02:01:18 V1M 75 00:48:58 00:41:50 - 10,437 05:45
237 3755 DUBURQUOY MARION 02:01:24 SEF 18 00:49:04 00:26:37 10,428 05:45
238 3244 LOORIUS LOiC 02:01:26 SEM 83 00:49:06 00:49:06 - 10,425 05:45
239 3323 JOLY JEAN-PIERRE 02:02:06 V3M 9 00:49:46 00:21:40 VAL DE SOMME 10,369 05:47
240 3002 BOULOY PHILIPPE 02:02:20 V2M 26 00:50:00 00:41:02 COJOGG 10,349 05:48
241 3461 SAINT-JACQUES CAMILLE 02:02:31 SEF 19 00:50:11 00:27:44 10,333 05:48
242 3462 KRAWCZYK SEBASTIEN 02:02:31 SEM 84 00:50:11 00:50:11 10,333 05:48
243 3402 DELVOYE PIERRE 02:02:50 SEM 85 00:50:30 00:50:30 - 10,307 05:49
244 3054 WANNEGUE MICKAEL 02:02:58 SEM 86 00:50:38 00:50:38 10,295 05:50
245 3236 GOLLIOT YANNICK 02:02:59 V2M 27 00:50:39 00:41:41 - 10,294 05:50
246 3180 DOUBLET OLIVIER 02:03:05 V1M 76 00:50:45 00:43:37 - 10,286 05:50
247 3022 FLACHERON STEVEN 02:03:10 SEM 87 00:50:50 00:50:50 - 10,279 05:50
248 3148 THUILLIERS KEVIN 02:03:31 SEM 88 00:51:11 00:51:11 10,250 05:51
249 3081 ARTIGAUT PAULINE 02:03:37 JUF 1 00:51:17 00:00:00 10,241 05:52
250 3479 LAVERDURE PASCAL 02:03:38 V2M 28 00:51:18 00:42:20 ATHLETISME CLUB OUTREAU 10,240 05:52
251 3239 SZYMANEK AUDREY 02:03:45 SEF 20 00:51:25 00:28:58 10,230 05:52
252 3183 VANDAMME ANAIS 02:03:58 SEF 21 00:51:38 00:29:11 10,212 05:53
253 3301 GOUTARD PHILIPPE 02:04:02 V3M 10 00:51:42 00:23:36 SAINT MARTIN ATHLETISME 10,207 05:53
254 3391 SEGUIN DIDIER 02:04:08 V2M 29 00:51:48 00:42:50 NL 10,199 05:53
255 3069 PISANI CATHERINE 02:04:13 V1F 15 00:51:53 00:33:46 COURIR A GRAVELINES 10,192 05:53
256 3233 OLIVEIRA TONY 02:04:13 V1M 77 00:51:53 00:44:45 - 10,192 05:53
257 3366 HEDUY JEAN JACQUES 02:04:15 V2M 30 00:51:55 00:42:57 - 10,189 05:53
258 3400 PRUD'HOMME MICHAEL 02:04:29 V1M 78 00:52:09 00:45:01 TEAM TRAIL 62 10,170 05:54
259 3386 BONNEL ISABELLE 02:04:35 V1F 16 00:52:15 00:34:08 10,162 05:54
260 3255 VANALDERWERELD ANTHONY 02:04:35 SEM 89 00:52:15 00:52:15 10,162 05:54
261 3395 KERCKOVE SEBASTIEN 02:04:41 SEM 90 00:52:21 00:52:21 STADE OLYMPIQUE CALAIS ATHLETISME 10,154 05:55
262 3488 PRINCELLE REMY 02:04:50 SEM 91 00:52:30 00:52:30 NON LICENCIE 10,142 05:55
263 3475 DUMONT JULIE 02:04:50 SEM 92 00:52:30 00:52:30 ATHLETISME CLUB OUTREAU 10,142 05:55
264 3360 STUBERT THIERRY 02:04:51 V1M 79 00:52:31 00:45:23 - 10,140 05:55
265 3085 FISHER CLAUDIE 02:05:03 V2F 5 00:52:43 00:11:27 10,124 05:56
266 3098 POIRET DAMIEN 02:05:03 SEM 93 00:52:43 00:52:43 10,124 05:56
267 3221 PRZYBYSZ THOMAS 02:05:16 SEM 94 00:52:56 00:52:56 NL 10,106 05:56
268 3457 LEDEZ JEAN MICHEL 02:05:18 SEM 95 00:52:58 00:52:58 NON LICENCIE 10,104 05:56
269 3057 FAUQUEMBERGUE LAURENT 02:05:20 V1M 80 00:53:00 00:45:52 10,101 05:56
270 3403 HOCHART STIG 02:05:30 V1M 81 00:53:10 00:46:02 10,088 05:57
271 3206 BUNIET OLIVIA 02:05:31 V1F 17 00:53:11 00:35:04 COURIR A GRAVELINES 10,086 05:57
272 3419 MAZURIER BENOIT 02:05:34 ESM 8 00:53:14 00:27:26 . 10,082 05:57
273 3035 BEAUGRAND FABRICE 02:05:34 V1M 82 00:53:14 00:46:06 - 10,082 05:57
274 3261 GRUSON GAELLE 02:05:34 SEF 22 00:53:14 00:30:47 10,082 05:57
275 3193 RINGEVAL JULIEN 02:05:34 SEM 96 00:53:14 00:53:14 10,082 05:57
276 3423 SOHIER ANGELIQUE 02:05:45 SEF 23 00:53:25 00:30:58 US LEFFRINCKOUCKE JOGGING 10,068 05:58
277 3043 DUHEM SeBASTIEN 02:06:02 V1M 83 00:53:42 00:46:34 - 10,045 05:58
278 3294 HIARD ANNICK 02:06:18 V2F 6 00:53:58 00:12:42 SPORT PLUS 10,024 05:59
279 3336 LAUWERS VIRGINIE 02:06:22 V1F 18 00:54:02 00:35:55 10,018 05:59
280 3331 LAUWERS NOEMIE 02:06:22 ESF 3 00:54:02 00:16:26 10,018 05:59
281 3127 BERBON ELODIE 02:07:03 SEF 24 00:54:43 00:32:16 9,965 06:01
282 3040 PICARD PIERRE AUGUSTE 02:07:15 V3M 11 00:54:55 00:26:49 9,949 06:02
283 3208 CLERBOUT MARC 02:07:23 V2M 31 00:55:03 00:46:05 RC BLENDECQUES 9,939 06:02
284 3384 COEUR CECILE 02:07:24 V1F 19 00:55:04 00:36:57 WIMEREUX RUNNING CLUB 9,937 06:02
285 3286 SUEUR BRUNO 02:07:32 V2M 32 00:55:12 00:46:14 ASUDJOGGING 9,927 06:03
286 3451 DAMBRINE JEREMY 02:07:34 SEM 97 00:55:14 00:55:14 9,924 06:03
287 3143 CORDONNIER AURELIEN 02:07:48 SEM 98 00:55:28 00:55:28 9,906 06:03
288 3263 CUGNY CELIMENE 02:07:50 SEF 25 00:55:30 00:33:03 9,904 06:04
289 3042 DERAM ARNAULD 02:07:54 SEM 99 00:55:34 00:55:34 COTE D’OPALE TRIATHLON CALAIS SAINT-OMER 9,898 06:04
290 3201 KUOCH VANESSA 02:07:57 SEF 26 00:55:37 00:33:10 - 9,894 06:04
291 3065 LECLERCQ JOHAN 02:08:05 SEM 100 00:55:45 00:55:45 9,884 06:04
292 3064 BAYEUX CORALIE 02:08:06 SEF 27 00:55:46 00:33:19 9,883 06:04
293 3464 BLARET LAURENT 02:08:08 V2M 33 00:55:48 00:46:50 ATHLETIQUE CLUB CAPELLOIS 9,880 06:04
294 3296 BLAMPAIN VALERIE 02:08:24 V2F 7 00:56:04 00:14:48 9,860 06:05
295 3106 DESCAMPS ELODIE 02:08:54 SEF 28 00:56:34 00:34:07 - 9,822 06:07
296 3248 LEDOUX THIERRY 02:09:02 V1M 84 00:56:42 00:49:34 OPALE AIDE ORGANISATION 9,811 06:07
297 3093 SEDEGUI SABRINA 02:09:04 SEF 29 00:56:44 00:34:17 9,809 06:07
298 3092 FOUQUE AURORE 02:09:04 SEF 30 00:56:44 00:34:17 9,809 06:07
299 3280 LEFEBVRE  EDDY  02:09:09 V1M 85 00:56:49 00:49:41 SO CALAIS 9,803 06:07
300 3142 VANDAMME ALLISON 02:09:16 SEF 31 00:56:56 00:34:29 9,794 06:08
301 3149 DUFLOT SEBASTIEN 02:09:43 V1M 86 00:57:23 00:50:15 9,760 06:09
302 3275 CLEMENT FABIEN 02:09:46 SEM 101 00:57:26 00:57:26 - 9,756 06:09
303 3443 AUZOU JEAN-PAUL 02:10:05 V2M 34 00:57:45 00:48:47 LE DRAPEAU 9,732 06:10
304 3439 LAURENT JOCELYN 02:10:30 V2M 35 00:58:10 00:49:12 CULTURE DANSE ETAPLES 9,701 06:11
305 3440 LAURENT ISABELLE 02:10:30 V1F 20 00:58:10 00:40:03 CULTURE DANSE ETAPLES 9,701 06:11
306 3430 CAULIER RUDOLPH 02:10:35 V1M 87 00:58:15 00:51:07 COLEMBERT 9,695 06:11
307 3352 MARTY VALERIE 02:10:39 V1F 21 00:58:19 00:40:12 S/L MARQUISE A 9,690 06:12
308 3409 PLOUGONVEN FRANCOIS 02:10:41 SEM 102 00:58:21 00:58:21 9,688 06:12
309 3079 GHESQUIERE MICHAEL 02:10:44 ESM 9 00:58:24 00:32:36 9,684 06:12
310 3353 LOUCHET FREDDY 02:10:52 V1M 88 00:58:32 00:51:24 S/L MARQUISE A 9,674 06:12
311 3354 MAHE FREDERIC 02:10:54 V1M 89 00:58:34 00:51:26 S/L MARQUISE A 9,672 06:12
312 3308 VASSEUR MICKAEL 02:11:05 V1M 90 00:58:45 00:51:37 SPORT PLUS 9,658 06:13
313 3334 CABOCHE JOSSELIN 02:11:13 SEM 103 00:58:53 00:58:53 - 9,648 06:13
314 3467 BOULET-NEGRI PASCALE 02:11:14 V1F 22 00:58:54 00:40:47 ATHLETISME CLUB OUTREAU 9,647 06:13
315 3071 MAXANT YOHAN 02:11:18 SEM 104 00:58:58 00:58:58 - 9,642 06:13
316 3247 MISEROLLE MATTHIEU 02:11:23 SEM 105 00:59:03 00:59:03 - 9,636 06:14
317 3375 CARBONNIER FABIEN 02:11:26 V1M 91 00:59:06 00:51:58 9,632 06:14
318 3291 COCATRIX EMMANUELLE 02:11:29 V1F 23 00:59:09 00:41:02 AMICALE HOSPITALIERS BOULOGNE 9,629 06:14
319 3330 GOURLAIN CLEMENT 02:11:29 ESM 10 00:59:09 00:33:21 9,629 06:14
320 3074 MAILLARD GREGORY 02:12:13 SEM 106 00:59:53 00:59:53 9,575 06:16
321 3101 FRANCOIS DECRIEM 02:12:25 SEM 107 01:00:05 01:00:05 9,561 06:17
322 3110 MULLER PAULINE 02:12:51 SEF 32 01:00:31 00:38:04 9,530 06:18
323 3446 FAUQUEMBERGUE VeRONIQUE 02:12:54 V2F 8 01:00:34 00:19:18 LE DRAPEAU 9,526 06:18
324 3327 MAGRIT STEPHANIE 02:12:54 V1F 24 01:00:34 00:42:27 9,526 06:18
325 3274 RONCUCCI JESSY 02:12:54 V1M 92 01:00:34 00:53:26 9,526 06:18
326 3189 CARON THOMAS 02:12:56 SEM 108 01:00:36 01:00:36 9,524 06:18
327 3257 CONDETTE JEAN-LUC 02:13:03 V3M 12 01:00:43 00:32:37 - 9,515 06:18
328 3313 GODARD PASCAL 02:13:14 V1M 93 01:00:54 00:53:46 XTREME TEAM 9,502 06:19
329 3241 CREPIN AUDREY 02:13:24 SEF 33 01:01:04 00:38:37 PATRIOTES CROSS DE GUINES 9,490 06:19
330 3197 SAVET ISABELLE 02:13:40 V1F 25 01:01:20 00:43:13 - 9,471 06:20
331 3082 MONTADOR OLIVIER 02:13:51 V1M 94 01:01:31 00:54:23 - 9,458 06:21
332 3340 SPADBRON ROMAIN 02:13:57 SEM 109 01:01:37 01:01:37 9,451 06:21
333 3021 LABOURDETTE ARNAUD 02:14:23 SEM 110 01:02:03 01:02:03 - 9,421 06:22
334 3211 DEMEY ALEXANDRE 02:14:31 SEM 111 01:02:11 01:02:11 9,411 06:23
335 3116 HEDGE MARINE 02:15:30 SEF 34 01:03:10 00:40:43 OXYGENE FITNESS 9,343 06:25
336 3444 BAUDELET NICOLAS 02:15:52 SEM 112 01:03:32 01:03:32 LE DRAPEAU 9,318 06:26
337 3344 DEVIN DANIEL 02:16:18 ESM 11 01:03:58 00:38:10 - 9,288 06:28
338 3342 DRUJERT JUSTIN 02:16:29 ESM 12 01:04:09 00:38:21 9,276 06:28
339 3063 CAPON DAVID 02:16:30 SEM 113 01:04:10 01:04:10 9,275 06:28
340 3168 FREDERIQUE LIZON 02:16:37 V1F 26 01:04:17 00:46:10 9,267 06:28
341 5821 DUFOSSE VINCENT 02:16:37 SEM 114 01:04:17 01:04:17 9,267 06:28
342 3278 HAVART JULIEN 02:17:02 SEM 115 01:04:42 01:04:42 9,239 06:30
343 3073 MORONVAL FRANCK 02:17:08 V1M 95 01:04:48 00:57:40 - 9,232 06:30
344 3134 FRESSANCOURT FERNAND 02:17:24 SEM 116 01:05:04 01:05:04 COURIR DANS LE LUMBROIS 9,214 06:31
345 3156 TILLOY EMMA 02:17:27 SEF 35 01:05:07 00:42:40 STADE OLYMPIQUE CALAIS ATHLETI 9,211 06:31
346 3273 DELVART LAETITIA 02:17:32 V1F 27 01:05:12 00:47:05 9,205 06:31
347 3020 TAURINES ANNE SOPHIE 02:17:40 V1F 28 01:05:20 00:47:13 - 9,196 06:31
348 3010 NIBBIO CHLOE 02:18:15 SEF 36 01:05:55 00:43:28 9,157 06:33
349 3151 SANCHO AURELIEN 02:18:46 SEM 117 01:06:26 01:06:26 9,123 06:35
350 3062 FLIPO BENEDICTE 02:18:47 SEF 37 01:06:27 00:44:00 9,122 06:35
351 3420 DESWARTES LUDOVIC 02:18:47 V1M 96 01:06:27 00:59:19 9,122 06:35
352 3408 PENET SOPHIE 02:18:57 SEF 38 01:06:37 00:44:10 OXYGENE FITNESS 9,111 06:35
353 3287 CATEZ LEANE 02:19:06 V1F 29 01:06:46 00:48:39 9,101 06:36
354 3077 ROGEZ ADELINE 02:19:14 SEF 39 01:06:54 00:44:27 9,093 06:36
355 3059 DEGRAND ARNAUD 02:19:29 V1M 97 01:07:09 01:00:01 9,076 06:37
356 3226 MERLIN FReDeRICK 02:19:46 SEM 118 01:07:26 01:07:26 - 9,058 06:37
357 3401 DELVOYE CAMILLE 02:19:54 SEF 40 01:07:34 00:45:07 - 9,049 06:38
358 3075 PONTOISE CELINE 02:20:00 V1F 30 01:07:40 00:49:33 9,043 06:38
359 3076 PONTOISE CHRISTOPHE 02:20:00 V1M 98 01:07:40 01:00:32 9,043 06:38
360 3136 DELAVALLE GAETAN 02:20:08 SEM 119 01:07:48 01:07:48 9,034 06:38
361 3207 SERGENT JOEL 02:20:43 V2M 36 01:08:23 00:59:25 NL 8,997 06:40
362 3412 CHARLES AUReLIE 02:20:46 SEF 41 01:08:26 00:45:59 ASL 8,994 06:40
363 3115 UTECHT ADRIEN 02:21:32 SEM 120 01:09:12 01:09:12 OPALE CROSS FIT 8,945 06:42
364 3163 SORET MANU 02:21:36 JUM 2 01:09:16 00:29:28 ATHLETISME CLUB OUTREAU 8,941 06:43
365 3135 LACROIX PERRINE 02:22:14 SEF 42 01:09:54 00:47:27 NON LICENCIE 8,901 06:44
366 3490 BRAUX HERVE 02:22:36 V3M 13 01:10:16 00:42:10 SAINT MARTIN ATHLETISME 8,878 06:45
367 3347 DUMAINE FABRICE 02:23:02 V2M 37 01:10:42 01:01:44 NON LICENCIE 8,851 06:47
368 3418 MASSON NATHALIE 02:23:23 V2F 9 01:11:03 00:29:47 - 8,829 06:48
369 3212 CRETON LORAIDANNA 02:24:09 SEF 43 01:11:49 00:49:22 8,783 06:50
370 3155 HAYEME TONY 02:24:12 SEM 121 01:11:52 01:11:52 BOULOGNE ATHLETIQUE CLUB 8,779 06:50
371 3426 VIGREUX JEREMY 02:24:39 V1M 99 01:12:19 01:05:11 8,752 06:51
372 3297 BONVOISIN MARIE 02:24:39 SEF 44 01:12:19 00:49:52 SAINT MARTIN ATHLETISME 8,752 06:51
373 3232 DECAIX FRANCOIS 02:24:45 V1M 100 01:12:25 01:05:17 8,746 06:52
374 3031 CRETON INGRID 02:25:50 SEF 45 01:13:30 00:51:03 - 8,681 06:55
375 3171 MAHIEUX SEBASTIEN 02:25:51 V1M 101 01:13:31 01:06:23 8,680 06:55
376 3243 MUIR ALINE 02:25:52 SEF 46 01:13:32 00:51:05 - 8,679 06:55
377 3251 BECARD DEBORAH 02:25:56 V1F 31 01:13:36 00:55:29 8,675 06:55
378 3209 BECARD EZECHIEL 02:25:57 V1M 102 01:13:37 01:06:29 - 8,674 06:55
379 3295 DUFEUTRELLE ALEXANDRE 02:25:59 SEM 122 01:13:39 01:13:39 - 8,672 06:55
380 3029 MASSON CLEMENT 02:26:03 SEM 123 01:13:43 01:13:43 8,668 06:55
381 3100 MAISONNEUVE DALILA 02:26:10 V1F 32 01:13:50 00:55:43 8,661 06:56
382 3099 MAISONNEUVE CHRISTOPHE 02:26:10 V1M 103 01:13:50 01:06:42 8,661 06:56
383 3112 LARCHER BEATRICE 02:26:30 V1F 33 01:14:10 00:56:03 ATHLETE ENDURANCE 8,642 06:57
384 3013 SOBOLE ETIENNE 02:26:37 V1M 104 01:14:17 01:07:09 8,635 06:57
385 3060 DUCROCQ JEANNINE 02:26:38 V1F 34 01:14:18 00:56:11 - 8,634 06:57
386 3153 SAC- EPEE LAURENCE 02:27:17 V1F 35 01:14:57 00:56:50 8,596 06:59
387 3216 GOEMAERE SOPHIE 02:27:19 SEF 47 01:14:59 00:52:32 - 8,594 06:59
388 3177 LOUCHET ANNE-CLAUDE 02:27:49 V2F 10 01:15:29 00:34:13 - 8,565 07:00
389 3365 BODEL RUDY 02:27:53 V1M 105 01:15:33 01:08:25 - 8,561 07:01
390 3129 LOBJEOIS LAURINE 02:28:01 SEF 48 01:15:41 00:53:14 8,553 07:01
391 3132 CASAIL MORGANE 02:28:01 SEF 49 01:15:41 00:53:14 8,553 07:01
392 3324 LEDREUX JOSE 02:28:22 V2M 38 01:16:02 01:07:04 VAL DE SOMME 8,533 07:02
393 3279 LANCE BENJAMIN 02:28:25 SEM 124 01:16:05 01:16:05 SPORT PLUS 8,530 07:02
394 3109 THUILLIER GUILLAUME 02:28:35 SEM 125 01:16:15 01:16:15 8,520 07:03
395 3266 NOURREDINE DAHOU 02:29:38 SEM 126 01:17:18 01:17:18 8,461 07:05
396 3433 LEVISSE DENIS 02:29:39 V3M 14 01:17:19 00:49:13 COLEMBERT 8,460 07:06
397 3288 BIASSE MARIE-ODILE 02:29:39 V1F 36 01:17:19 00:59:12 AMICALE HOSPITALIERS BOULOGNE 8,460 07:06
398 3306 HELLOT ROMUALD 02:29:39 V1M 106 01:17:19 01:10:11 8,460 07:06
399 3406 SANCHEZ PABLITO 02:29:46 V2M 39 01:17:26 01:08:28 - 8,453 07:06
400 3289 MINET ROGER 02:30:14 V3M 15 01:17:54 00:49:48 AMICALE HOSPITALIERS BOULOGNE 8,427 07:07
401 3121 DELATTRE KARINE 02:31:51 SEF 50 01:19:31 00:57:04 - 8,337 07:12
402 3290 DUBUISSON CeDRIC 02:32:10 V1M 107 01:19:50 01:12:42 AMICALE HOSPITALIERS BOULOGNE 8,320 07:13
403 3138 RENIER OLIVIER 02:32:32 V2M 40 01:20:12 01:11:14 8,300 07:14
404 3107 OBAL NICOLAS 02:33:48 SEM 127 01:21:28 01:21:28 8,231 07:17
405 3045 PACCARD NICOLAS 02:34:28 SEM 128 01:22:08 01:22:08 8,196 07:19
406 3126 BOUILLON ALEX 02:35:32 ESM 13 01:23:12 00:57:24 8,140 07:22
407 3014 JOLY WILLIAM 02:36:17 SEM 129 01:23:57 01:23:57 8,101 07:24
408 3015 MASSON CATHY 02:37:28 V1F 37 01:25:08 01:07:01 - 8,040 07:28
409 3314 BONNETAUD CINDY 02:37:28 V1F 38 01:25:08 01:07:01 COURSE ANIMATIONS POPULAIRE 8,040 07:28
410 3371 LEROY SABINE 02:40:14 V1F 39 01:27:54 01:09:47 7,901 07:36
411 3004 TAQUET JACQUES 02:41:36 V2M 41 01:29:16 01:20:18 7,834 07:40
412 3449 BERTIN AUBIN 02:42:46 ESM 14 01:30:26 01:04:38 - 7,778 07:43
413 3303 GRINCOURT NADIA 02:45:25 V2F 11 01:33:05 00:51:49 7,653 07:50
414 3304 GRINCOURT MARC 02:45:25 V2M 42 01:33:05 01:24:07 7,653 07:50
415 3080 ARTIGAUT ANNE 02:50:18 V2F 12 01:37:58 00:56:42 7,434 08:04
416 3017 MASSON SEBASTIEN 02:50:41 V3M 16 01:38:21 01:10:15 7,417 08:05
417 3044 KEPLIN SARAH 02:57:29 SEF 51 01:45:09 01:22:42 7,133 08:25
418 3011 LANGA LISA 03:00:43 SEF 52 01:48:23 01:25:56 7,005 08:34
419 3175 LE GARREC CeLINE 03:02:24 V3F 1 01:50:04 00:00:00 - 6,941 08:39
420 3321 LECLERCQ LUCILLE 03:08:56 V2F 13 01:56:36 01:15:20 VAL DE SOMME 6,701 08:57
421 3438 PIGANIOL BERNARD 03:08:57 V3M 17 01:56:37 01:28:31 6,700 08:57